createdAt,value
2019-03-25T00:00:57.217Z,10.27
2019-03-25T00:03:27.025Z,10.27
2019-03-25T00:05:56.881Z,10.14
2019-03-25T00:08:26.755Z,10.13
2019-03-25T00:10:56.627Z,10.09
2019-03-25T00:13:26.241Z,10.01
2019-03-25T00:15:56.542Z,9.93
2019-03-25T00:18:26.491Z,9.96
2019-03-25T00:20:56.394Z,9.96
2019-03-25T00:23:26.228Z,9.96
2019-03-25T00:25:55.868Z,9.90
2019-03-25T00:28:25.607Z,9.90
2019-03-25T00:30:55.270Z,9.92
2019-03-25T00:33:24.936Z,9.86
2019-03-25T00:35:55.003Z,9.83
2019-03-25T00:38:24.760Z,9.82
2019-03-25T00:40:54.512Z,9.83
2019-03-25T00:43:24.287Z,9.79
2019-03-25T00:45:54.084Z,9.81
2019-03-25T00:48:23.911Z,9.80
2019-03-25T00:50:53.561Z,9.67
2019-03-25T00:53:23.234Z,9.63
2019-03-25T00:55:52.831Z,9.60
2019-03-25T00:58:22.693Z,9.49
2019-03-25T01:00:52.344Z,9.50
2019-03-25T01:03:22.014Z,9.50
2019-03-25T01:05:52.071Z,9.49
2019-03-25T01:08:22.202Z,9.47
2019-03-25T01:10:52.033Z,9.42
2019-03-25T01:13:21.685Z,9.42
2019-03-25T01:15:51.301Z,9.36
2019-03-25T01:18:21.250Z,9.31
2019-03-25T01:20:50.871Z,9.16
2019-03-25T01:23:20.529Z,9.25
2019-03-25T01:25:50.300Z,9.20
2019-03-25T01:28:20.191Z,9.21
2019-03-25T01:30:50.234Z,9.26
2019-03-25T01:33:20.048Z,9.17
2019-03-25T01:35:49.780Z,9.14
2019-03-25T01:38:19.514Z,9.15
2019-03-25T01:40:49.270Z,9.15
2019-03-25T01:43:18.944Z,9.12
2019-03-25T01:45:48.703Z,9.11
2019-03-25T01:48:18.586Z,9.06
2019-03-25T01:50:48.528Z,9.04
2019-03-25T01:53:18.381Z,9.01
2019-03-25T01:55:48.278Z,9.04
2019-03-25T01:58:18.117Z,9.02
2019-03-25T02:00:47.865Z,9.03
2019-03-25T02:03:17.905Z,9.01
2019-03-25T02:05:47.533Z,9.01
2019-03-25T02:08:17.675Z,9.01
2019-03-25T02:10:47.335Z,8.91
2019-03-25T02:13:17.124Z,8.86
2019-03-25T02:15:46.984Z,8.86
2019-03-25T02:18:16.989Z,8.84
2019-03-25T02:20:46.934Z,8.85
2019-03-25T02:23:16.948Z,8.86
2019-03-25T02:25:46.680Z,8.86
2019-03-25T02:28:16.858Z,8.87
2019-03-25T02:30:46.763Z,8.84
2019-03-25T02:33:16.584Z,8.81
2019-03-25T02:35:46.196Z,8.73
2019-03-25T02:38:15.825Z,8.67
2019-03-25T02:40:45.550Z,8.61
2019-03-25T02:43:15.576Z,8.52
2019-03-25T02:45:45.382Z,8.43
2019-03-25T02:48:15.063Z,8.40
2019-03-25T02:50:45.002Z,8.37
2019-03-25T02:53:14.601Z,8.32
2019-03-25T02:55:44.608Z,8.25
2019-03-25T02:58:14.564Z,8.21
2019-03-25T03:00:44.200Z,8.14
2019-03-25T03:03:14.228Z,8.11
2019-03-25T03:05:44.432Z,8.06
2019-03-25T03:08:14.420Z,8.00
2019-03-25T03:10:44.023Z,7.96
2019-03-25T03:13:13.768Z,7.89
2019-03-25T03:15:43.714Z,7.82
2019-03-25T03:18:13.375Z,7.74
2019-03-25T03:20:43.197Z,7.65
2019-03-25T03:23:13.105Z,7.58
2019-03-25T03:25:56.229Z,7.49
2019-03-25T03:28:14.661Z,7.41
2019-03-25T03:30:44.449Z,7.34
2019-03-25T03:33:14.290Z,7.25
2019-03-25T03:35:46.531Z,7.21
2019-03-25T03:38:15.585Z,7.15
2019-03-25T03:40:45.217Z,7.07
2019-03-25T03:43:14.983Z,6.99
2019-03-25T03:45:45.087Z,6.91
2019-03-25T03:48:14.972Z,6.81
2019-03-25T03:50:44.793Z,6.71
2019-03-25T03:53:14.397Z,6.65
2019-03-25T03:55:44.193Z,6.61
2019-03-25T03:58:13.852Z,6.51
2019-03-25T04:00:43.810Z,6.44
2019-03-25T04:03:13.796Z,6.47
2019-03-25T04:05:43.374Z,6.41
2019-03-25T04:08:13.248Z,6.32
2019-03-25T04:10:42.876Z,6.29
2019-03-25T04:13:12.615Z,6.20
2019-03-25T04:15:42.247Z,6.10
2019-03-25T04:18:11.936Z,6.00
2019-03-25T04:20:41.556Z,5.90
2019-03-25T04:23:11.307Z,5.79
2019-03-25T04:25:41.486Z,5.74
2019-03-25T04:28:11.361Z,5.66
2019-03-25T04:30:41.371Z,5.60
2019-03-25T04:33:11.189Z,5.52
2019-03-25T04:35:41.005Z,5.45
2019-03-25T04:38:10.735Z,5.41
2019-03-25T04:40:40.378Z,5.36
2019-03-25T04:43:11.909Z,5.32
2019-03-25T04:45:41.540Z,5.29
2019-03-25T04:48:11.331Z,5.31
2019-03-25T04:50:41.539Z,5.27
2019-03-25T04:53:11.344Z,5.23
2019-03-25T04:55:41.404Z,5.23
2019-03-25T04:58:11.163Z,5.21
2019-03-25T05:00:40.966Z,5.13
2019-03-25T05:03:10.793Z,5.00
2019-03-25T05:05:40.845Z,4.96
2019-03-25T05:08:10.416Z,4.86
2019-03-25T05:10:40.242Z,4.81
2019-03-25T05:13:09.852Z,4.69
2019-03-25T05:15:39.664Z,4.72
2019-03-25T05:18:09.353Z,4.69
2019-03-25T05:20:39.349Z,4.67
2019-03-25T05:23:09.162Z,4.72
2019-03-25T05:25:38.918Z,4.71
2019-03-25T05:28:08.874Z,4.74
2019-03-25T05:30:38.439Z,4.71
2019-03-25T05:33:08.622Z,4.67
2019-03-25T05:35:38.240Z,4.67
2019-03-25T05:38:07.870Z,4.69
2019-03-25T05:40:37.685Z,4.77
2019-03-25T05:43:07.610Z,4.82
2019-03-25T05:45:37.205Z,4.79
2019-03-25T05:48:07.023Z,4.98
2019-03-25T05:50:36.692Z,5.02
2019-03-25T05:53:06.379Z,5.13
2019-03-25T05:55:36.428Z,5.26
2019-03-25T05:58:06.571Z,5.49
2019-03-25T06:00:38.276Z,5.71
2019-03-25T06:03:07.915Z,5.99
2019-03-25T06:05:37.758Z,6.33
2019-03-25T06:08:07.934Z,6.55
2019-03-25T06:10:37.736Z,6.72
2019-03-25T06:13:07.390Z,6.65
2019-03-25T06:15:37.061Z,6.64
2019-03-25T06:18:06.934Z,6.61
2019-03-25T06:20:36.559Z,6.70
2019-03-25T06:23:06.548Z,6.61
2019-03-25T06:25:36.491Z,6.55
2019-03-25T06:28:06.126Z,6.58
2019-03-25T06:30:35.811Z,6.57
2019-03-25T06:33:12.340Z,6.66
2019-03-25T06:35:37.609Z,6.72
2019-03-25T06:38:08.371Z,6.68
2019-03-25T06:40:38.250Z,6.83
2019-03-25T06:43:08.205Z,6.89
2019-03-25T06:45:37.990Z,7.06
2019-03-25T06:48:08.036Z,6.90
2019-03-25T06:50:37.870Z,6.83
2019-03-25T06:53:07.592Z,7.02
2019-03-25T06:55:37.945Z,7.23
2019-03-25T06:58:07.549Z,7.53
2019-03-25T07:00:37.284Z,7.86
2019-03-25T07:03:07.089Z,7.98
2019-03-25T07:05:36.671Z,8.19
2019-03-25T07:08:06.272Z,8.06
2019-03-25T07:10:37.503Z,8.04
2019-03-25T07:13:07.615Z,8.01
2019-03-25T07:15:37.659Z,8.05
2019-03-25T07:18:08.011Z,7.91
2019-03-25T07:20:37.921Z,7.86
2019-03-25T07:23:07.528Z,7.82
2019-03-25T07:25:37.286Z,7.67
2019-03-25T07:28:06.983Z,7.65
2019-03-25T07:30:36.924Z,7.71
2019-03-25T07:33:06.971Z,7.59
2019-03-25T07:35:36.594Z,7.55
2019-03-25T07:38:06.697Z,7.66
2019-03-25T07:40:36.388Z,7.59
2019-03-25T07:43:06.256Z,7.58
2019-03-25T07:45:36.213Z,7.63
2019-03-25T07:48:06.063Z,7.76
2019-03-25T07:50:35.915Z,7.81
2019-03-25T07:53:05.566Z,7.90
2019-03-25T07:55:35.394Z,7.93
2019-03-25T07:58:05.043Z,7.91
2019-03-25T08:00:34.926Z,7.88
2019-03-25T08:03:04.922Z,7.91
2019-03-25T08:05:34.784Z,8.03
2019-03-25T08:08:07.264Z,8.00
2019-03-25T08:10:36.854Z,8.00
2019-03-25T08:13:06.639Z,7.97
2019-03-25T08:15:36.622Z,8.02
2019-03-25T08:18:07.181Z,7.98
2019-03-25T08:20:37.005Z,8.00
2019-03-25T08:23:06.831Z,7.98
2019-03-25T08:25:36.485Z,8.01
2019-03-25T08:28:06.249Z,8.12
2019-03-25T08:30:36.536Z,8.14
2019-03-25T08:33:06.303Z,8.18
2019-03-25T08:35:35.958Z,8.35
2019-03-25T08:38:05.630Z,8.63
2019-03-25T08:40:35.416Z,8.80
2019-03-25T08:43:05.640Z,8.79
2019-03-25T08:45:35.285Z,8.90
2019-03-25T08:48:05.563Z,8.96
2019-03-25T08:50:35.209Z,9.07
2019-03-25T08:53:04.955Z,9.26
2019-03-25T08:55:34.785Z,9.43
2019-03-25T08:58:11.864Z,9.52
2019-03-25T09:00:35.875Z,9.53
2019-03-25T09:03:05.776Z,9.63
2019-03-25T09:05:35.489Z,9.70
2019-03-25T09:08:05.724Z,9.74
2019-03-25T09:10:35.950Z,9.72
2019-03-25T09:13:05.646Z,9.79
2019-03-25T09:15:35.674Z,9.82
2019-03-25T09:18:05.418Z,9.81
2019-03-25T09:20:35.015Z,9.86
2019-03-25T09:23:04.693Z,9.76
2019-03-25T09:25:34.555Z,9.83
2019-03-25T09:28:04.426Z,9.80
2019-03-25T09:31:16.746Z,9.85
2019-03-25T09:33:47.169Z,9.79
2019-03-25T09:36:17.763Z,9.77
2019-03-25T09:38:47.395Z,9.75
2019-03-25T09:41:17.079Z,9.66
2019-03-25T09:43:46.665Z,9.78
2019-03-25T09:46:16.552Z,10.08
2019-03-25T09:48:46.738Z,10.48
2019-03-25T09:51:17.915Z,10.85
2019-03-25T09:53:47.577Z,11.12
2019-03-25T09:56:17.325Z,11.00
2019-03-25T09:58:47.057Z,11.01
2019-03-25T10:01:17.219Z,11.20
2019-03-25T10:03:47.048Z,11.21
2019-03-25T10:06:17.706Z,11.51
2019-03-25T10:08:48.339Z,11.35
2019-03-25T10:11:18.118Z,11.63
2019-03-25T10:13:47.778Z,11.77
2019-03-25T10:16:17.587Z,11.72
2019-03-25T10:18:47.411Z,11.49
2019-03-25T10:21:17.260Z,11.42
2019-03-25T10:23:46.908Z,11.34
2019-03-25T10:26:16.803Z,11.25
2019-03-25T10:28:49.045Z,11.12
2019-03-25T10:31:18.312Z,11.10
2019-03-25T10:33:47.965Z,11.02
2019-03-25T10:36:17.723Z,10.82
2019-03-25T10:38:47.370Z,10.74
2019-03-25T10:41:17.200Z,10.57
2019-03-25T10:43:47.100Z,10.43
2019-03-25T10:46:17.303Z,10.29
2019-03-25T10:48:46.976Z,10.11
2019-03-25T10:51:16.883Z,10.00
2019-03-25T10:53:47.060Z,10.05
2019-03-25T10:56:17.282Z,10.26
2019-03-25T10:58:47.442Z,10.38
2019-03-25T11:01:17.170Z,10.51
2019-03-25T11:03:46.993Z,10.83
2019-03-25T11:06:17.015Z,11.25
2019-03-25T11:08:48.123Z,11.44
2019-03-25T11:11:18.323Z,11.66
2019-03-25T11:13:47.975Z,11.60
2019-03-25T11:16:17.863Z,11.75
2019-03-25T11:18:47.546Z,11.91
2019-03-25T11:21:17.507Z,11.89
2019-03-25T11:23:47.301Z,11.75
2019-03-25T11:26:17.534Z,11.94
2019-03-25T11:28:47.182Z,11.98
2019-03-25T11:31:16.968Z,12.14
2019-03-25T11:33:46.793Z,12.32
2019-03-25T11:36:16.777Z,12.62
2019-03-25T11:38:46.397Z,12.89
2019-03-25T11:41:16.157Z,12.81
2019-03-25T11:43:46.114Z,12.72
2019-03-25T11:46:15.798Z,12.49
2019-03-25T11:48:45.824Z,12.30
2019-03-25T11:51:15.712Z,12.07
2019-03-25T11:53:45.486Z,12.02
2019-03-25T11:56:15.303Z,11.85
2019-03-25T11:58:44.894Z,11.75
2019-03-25T12:01:14.844Z,11.72
2019-03-25T12:03:45.272Z,11.53
2019-03-25T12:06:15.034Z,11.51
2019-03-25T12:08:44.771Z,11.77
2019-03-25T12:11:14.457Z,11.82
2019-03-25T12:13:44.053Z,11.94
2019-03-25T12:16:13.812Z,12.38
2019-03-25T12:18:43.838Z,12.74
2019-03-25T12:21:13.665Z,13.06
2019-03-25T12:23:43.602Z,13.01
2019-03-25T12:26:13.583Z,13.13
2019-03-25T12:28:43.371Z,13.25
2019-03-25T12:31:13.046Z,13.35
2019-03-25T12:33:42.654Z,13.34
2019-03-25T12:36:12.477Z,13.18
2019-03-25T12:38:42.335Z,12.87
2019-03-25T12:41:12.457Z,12.53
2019-03-25T12:43:42.274Z,12.46
2019-03-25T12:46:12.247Z,12.36
2019-03-25T12:48:41.896Z,12.58
2019-03-25T12:51:11.504Z,12.83
2019-03-25T12:53:41.760Z,13.09
2019-03-25T12:56:11.628Z,12.88
2019-03-25T12:58:41.450Z,12.95
2019-03-25T13:01:11.407Z,12.85
2019-03-25T13:03:41.610Z,12.88
2019-03-25T13:06:11.397Z,12.68
2019-03-25T13:08:41.176Z,12.63
2019-03-25T13:11:11.021Z,12.53
2019-03-25T13:13:40.939Z,12.51
2019-03-25T13:16:10.731Z,12.50
2019-03-25T13:18:40.475Z,12.42
2019-03-25T13:21:10.506Z,12.27
2019-03-25T13:23:40.196Z,12.05
2019-03-25T13:26:09.893Z,12.07
2019-03-25T13:28:40.035Z,11.92
2019-03-25T13:31:09.848Z,11.54
2019-03-25T13:33:39.831Z,11.41
2019-03-25T13:36:09.764Z,11.34
2019-03-25T13:38:39.643Z,10.84
2019-03-25T13:41:09.234Z,10.47
2019-03-25T13:43:39.122Z,9.96
2019-03-25T13:46:08.735Z,9.31
2019-03-25T13:48:38.564Z,9.07
2019-03-25T13:51:08.252Z,8.94
2019-03-25T13:53:37.987Z,8.77
2019-03-25T13:56:07.619Z,8.71
2019-03-25T13:58:37.467Z,9.05
2019-03-25T14:01:07.574Z,9.43
2019-03-25T14:03:37.212Z,9.61
2019-03-25T14:06:07.056Z,9.75
2019-03-25T14:08:36.975Z,9.89
2019-03-25T14:11:07.232Z,9.96
2019-03-25T14:13:36.932Z,10.01
2019-03-25T14:16:07.070Z,10.03
2019-03-25T14:18:36.942Z,10.10
2019-03-25T14:21:06.608Z,10.33
2019-03-25T14:23:37.247Z,10.56
2019-03-25T14:26:06.971Z,10.84
2019-03-25T14:28:36.951Z,10.96
2019-03-25T14:31:06.926Z,10.81
2019-03-25T14:33:36.551Z,10.82
2019-03-25T14:36:06.576Z,10.91
2019-03-25T14:38:36.486Z,10.86
2019-03-25T14:41:06.639Z,10.93
2019-03-25T14:43:36.324Z,11.06
2019-03-25T14:46:06.390Z,11.12
2019-03-25T14:48:36.341Z,11.17
2019-03-25T14:51:06.407Z,11.17
2019-03-25T14:53:44.788Z,11.15
2019-03-25T14:56:07.682Z,11.26
2019-03-25T14:58:37.931Z,11.24
2019-03-25T15:01:07.855Z,11.22
2019-03-25T15:03:37.622Z,11.15
2019-03-25T15:06:07.692Z,11.20
2019-03-25T15:08:37.541Z,11.13
2019-03-25T15:11:07.207Z,11.03
2019-03-25T15:13:36.868Z,10.93
2019-03-25T15:16:06.735Z,10.37
2019-03-25T15:18:36.662Z,10.00
2019-03-25T15:21:06.442Z,9.83
2019-03-25T15:23:36.964Z,9.38
2019-03-25T15:26:08.007Z,9.18
2019-03-25T15:28:38.478Z,9.11
2019-03-25T15:31:08.573Z,9.00
2019-03-25T15:33:38.814Z,9.00
2019-03-25T15:36:08.515Z,8.94
2019-03-25T15:38:38.893Z,8.99
2019-03-25T15:41:08.887Z,9.12
2019-03-25T15:43:38.833Z,9.35
2019-03-25T15:46:08.860Z,9.47
2019-03-25T15:48:39.793Z,9.90
2019-03-25T15:51:09.844Z,9.54
2019-03-25T15:53:39.914Z,9.34
2019-03-25T15:56:09.893Z,9.43
2019-03-25T15:58:39.993Z,9.35
2019-03-25T16:01:11.008Z,9.33
2019-03-25T16:03:40.672Z,9.31
2019-03-25T16:06:10.410Z,9.18
2019-03-25T16:08:40.442Z,9.12
2019-03-25T16:11:10.276Z,9.08
2019-03-25T16:13:40.160Z,8.99
2019-03-25T16:16:09.850Z,9.04
2019-03-25T16:18:41.581Z,9.01
2019-03-25T16:21:12.030Z,9.02
2019-03-25T16:23:42.014Z,9.24
2019-03-25T16:26:11.654Z,9.29
2019-03-25T16:28:41.640Z,9.35
2019-03-25T16:31:11.524Z,9.41
2019-03-25T16:33:41.202Z,9.47
2019-03-25T16:36:11.437Z,9.42
2019-03-25T16:38:41.628Z,9.37
2019-03-25T16:41:11.558Z,9.31
2019-03-25T16:43:41.769Z,9.27
2019-03-25T16:46:11.607Z,9.19
2019-03-25T16:48:41.275Z,9.17
2019-03-25T16:51:11.000Z,9.17
2019-03-25T16:53:40.831Z,9.12
2019-03-25T16:56:10.688Z,9.13
2019-03-25T16:58:40.576Z,9.10
2019-03-25T17:01:10.660Z,9.04
2019-03-25T17:03:40.640Z,9.02
2019-03-25T17:06:10.419Z,9.06
2019-03-25T17:08:40.261Z,9.00
2019-03-25T17:11:10.668Z,8.98
2019-03-25T17:13:40.446Z,8.94
2019-03-25T17:16:10.218Z,8.91
2019-03-25T17:18:39.836Z,8.98
2019-03-25T17:21:09.851Z,8.94
2019-03-25T17:23:39.693Z,8.83
2019-03-25T17:26:09.492Z,8.80
2019-03-25T17:28:39.396Z,8.74
2019-03-25T17:31:09.225Z,8.77
2019-03-25T17:33:39.012Z,8.71
2019-03-25T17:36:08.674Z,8.63
2019-03-25T17:38:38.495Z,8.68
2019-03-25T17:41:08.369Z,8.60
2019-03-25T17:43:38.031Z,8.59
2019-03-25T17:46:08.075Z,8.59
2019-03-25T17:48:37.805Z,8.60
2019-03-25T17:51:07.479Z,8.59
2019-03-25T17:53:37.535Z,8.55
2019-03-25T17:56:07.369Z,8.50
2019-03-25T17:58:37.578Z,8.59
2019-03-25T18:01:15.647Z,8.61
2019-03-25T18:03:45.317Z,8.54
2019-03-25T18:06:15.359Z,8.60
2019-03-25T18:08:45.132Z,8.56
2019-03-25T18:11:15.335Z,8.64
2019-03-25T18:13:45.462Z,8.63
2019-03-25T18:16:15.065Z,8.72
2019-03-25T18:18:45.001Z,8.74
2019-03-25T18:21:14.816Z,8.72
2019-03-25T18:23:44.710Z,8.65
2019-03-25T18:26:14.443Z,8.60
2019-03-25T18:28:44.862Z,8.64
2019-03-25T18:31:14.955Z,8.63
2019-03-25T18:33:45.114Z,8.61
2019-03-25T18:36:15.310Z,8.58
2019-03-25T18:38:45.063Z,8.51
2019-03-25T18:41:14.785Z,8.35
2019-03-25T18:43:44.576Z,8.36
2019-03-25T18:46:14.544Z,8.41
2019-03-25T18:48:44.570Z,8.17
2019-03-25T18:51:14.184Z,8.09
2019-03-25T18:53:44.182Z,7.76
2019-03-25T18:56:26.576Z,7.56
2019-03-25T18:59:04.816Z,7.26
2019-03-25T19:01:39.418Z,7.12
2019-03-25T19:04:09.485Z,7.04
2019-03-25T19:06:42.299Z,6.95
2019-03-25T19:09:12.476Z,6.71
2019-03-25T19:11:42.664Z,6.69
2019-03-25T19:14:12.578Z,6.63
2019-03-25T19:16:53.782Z,6.57
2019-03-25T19:19:24.018Z,6.48
2019-03-25T19:21:54.427Z,6.44
2019-03-25T19:24:25.251Z,6.31
2019-03-25T19:27:12.426Z,6.33
2019-03-25T19:29:54.250Z,6.24
2019-03-25T19:32:24.180Z,6.27
2019-03-25T19:34:53.840Z,6.19
2019-03-25T19:37:24.149Z,6.13
2019-03-25T19:39:53.998Z,6.08
2019-03-25T19:42:23.941Z,6.05
2019-03-25T19:44:53.726Z,6.00
2019-03-25T19:47:23.653Z,5.98
2019-03-25T19:49:53.642Z,6.06
2019-03-25T19:52:23.755Z,6.04
2019-03-25T19:54:53.946Z,6.03
2019-03-25T19:57:24.065Z,6.07
2019-03-25T19:59:54.034Z,6.11
2019-03-25T20:02:23.919Z,6.19
2019-03-25T20:04:53.666Z,6.20
2019-03-25T20:07:23.988Z,6.21
2019-03-25T20:09:53.769Z,6.18
2019-03-25T20:12:23.522Z,6.21
2019-03-25T20:14:53.505Z,6.21
2019-03-25T20:17:23.406Z,6.25
2019-03-25T20:19:53.156Z,6.26
2019-03-25T20:22:22.827Z,6.26
2019-03-25T20:24:52.609Z,6.29
2019-03-25T20:27:26.014Z,6.33
2019-03-25T20:30:40.564Z,6.33
2019-03-25T20:33:39.143Z,6.34
2019-03-25T20:36:13.703Z,6.34
2019-03-25T20:39:24.687Z,6.31
2019-03-25T20:42:06.798Z,6.29
2019-03-25T20:44:44.466Z,6.31
2019-03-25T20:47:18.775Z,6.29
2019-03-25T20:49:48.642Z,6.31
2019-03-25T20:52:18.312Z,6.27
2019-03-25T20:54:48.276Z,6.26
2019-03-25T20:57:18.092Z,6.26
2019-03-25T20:59:47.964Z,6.26
2019-03-25T21:02:17.823Z,6.31
2019-03-25T21:04:47.674Z,6.29
2019-03-25T21:07:17.868Z,6.24
2019-03-25T21:09:47.640Z,6.20
2019-03-25T21:12:17.500Z,6.14
2019-03-25T21:14:47.174Z,6.13
2019-03-25T21:17:17.037Z,6.09
2019-03-25T21:19:47.142Z,6.01
2019-03-25T21:22:16.872Z,5.98
2019-03-25T21:24:46.773Z,6.04
2019-03-25T21:27:16.559Z,6.00
2019-03-25T21:29:46.554Z,5.97
2019-03-25T21:32:16.584Z,5.97
2019-03-25T21:34:46.817Z,5.91
2019-03-25T21:37:16.815Z,5.84
2019-03-25T21:39:46.643Z,5.89
2019-03-25T21:42:16.481Z,5.82
2019-03-25T21:44:46.536Z,5.81
2019-03-25T21:47:16.899Z,5.80
2019-03-25T21:49:46.937Z,5.80
2019-03-25T21:52:16.811Z,5.77
2019-03-25T21:54:46.709Z,5.76
2019-03-25T21:57:16.625Z,5.85
2019-03-25T21:59:46.651Z,5.82
2019-03-25T22:02:16.390Z,5.78
2019-03-25T22:04:46.557Z,5.77
2019-03-25T22:07:16.219Z,5.77
2019-03-25T22:09:46.024Z,5.76
2019-03-25T22:12:15.771Z,5.76
2019-03-25T22:14:45.784Z,5.76
2019-03-25T22:17:15.986Z,5.75
2019-03-25T22:19:45.597Z,5.76
2019-03-25T22:22:15.218Z,5.75
2019-03-25T22:24:44.832Z,5.78
2019-03-25T22:27:14.827Z,5.78
2019-03-25T22:29:44.651Z,5.76
2019-03-25T22:32:14.286Z,5.76
2019-03-25T22:34:44.167Z,5.73
2019-03-25T22:37:14.232Z,5.77
2019-03-25T22:39:44.139Z,5.79
2019-03-25T22:42:15.318Z,5.80
2019-03-25T22:44:45.142Z,5.78
2019-03-25T22:47:14.816Z,5.77
2019-03-25T22:49:44.600Z,5.76
2019-03-25T22:52:14.263Z,5.74
2019-03-25T22:54:43.898Z,5.71
2019-03-25T22:57:13.560Z,5.65
2019-03-25T22:59:43.176Z,5.57
2019-03-25T23:02:12.800Z,5.51
2019-03-25T23:04:42.620Z,5.49
2019-03-25T23:07:12.723Z,5.52
2019-03-25T23:09:42.584Z,5.54
2019-03-25T23:12:12.351Z,5.50
